Lemstanas Airport


Codes: ESOL/
Name: Lemstanas Airport
City: Storvik
Country: Sweden
Elevation: 0 ft.

Photos at Lemstanas Airport


   Photos courtesy of SpottingLog. You can add your own sightings and photos by signing up for a free trial today.



No photos found.

Weather at Lemstanas Airport


Time (UTC)DescriptionTempratureWindCloud coverageVisibilityPressureHumidity
18-Apr-2024 00:00Few Clouds-1°C7 mph, N17%10000m1014hPa94%
18-Apr-2024 03:00Scattered Clouds-1°C7 mph, N50%10000m1015hPa89%
18-Apr-2024 06:00Broken Clouds-0°C7 mph, N82%10000m1016hPa67%
18-Apr-2024 09:00Overcast Clouds2°C7 mph, N95%10000m1015hPa62%
18-Apr-2024 12:00Light Rain2°C7 mph, N98%2831m1015hPa83%
18-Apr-2024 15:00Light Snow1°C9 mph, NE100%7863m1015hPa87%
18-Apr-2024 18:00Light Snow0°C7 mph, NE100%10000m1015hPa83%
18-Apr-2024 21:00Light Snow-1°C7 mph, NE99%2942m1015hPa92%
19-Apr-2024 00:00Light Snow-1°C7 mph, NE98%737m1014hPa95%
19-Apr-2024 03:00Light Snow-2°C7 mph, N100%0m1013hPa95%
19-Apr-2024 06:00Light Snow-1°C9 mph, NE100%1599m1013hPa88%
19-Apr-2024 09:00Light Snow2°C9 mph, NE100%10000m1012hPa73%
19-Apr-2024 12:00Light Snow3°C9 mph, NE100%10000m1012hPa59%
19-Apr-2024 15:00Overcast Clouds2°C11 mph, NE100%10000m1013hPa68%
19-Apr-2024 18:00Overcast Clouds-2°C9 mph, NE100%10000m1014hPa76%
19-Apr-2024 21:00Overcast Clouds-3°C9 mph, N100%10000m1014hPa75%
20-Apr-2024 00:00Overcast Clouds-3°C9 mph, N99%10000m1015hPa75%
20-Apr-2024 03:00Scattered Clouds-4°C7 mph, N26%10000m1015hPa79%
20-Apr-2024 06:00Few Clouds-1°C9 mph, N17%10000m1016hPa60%
20-Apr-2024 09:00Clear Sky3°C7 mph, N6%10000m1017hPa38%
20-Apr-2024 12:00Few Clouds5°C7 mph, NE24%10000m1019hPa34%
20-Apr-2024 15:00Overcast Clouds3°C9 mph, E100%10000m1021hPa51%
20-Apr-2024 18:00Overcast Clouds-1°C4 mph, E100%10000m1024hPa72%
20-Apr-2024 21:00Overcast Clouds-2°C2 mph, N100%10000m1026hPa78%
21-Apr-2024 00:00Overcast Clouds-2°C2 mph, NW96%10000m1028hPa78%
21-Apr-2024 03:00Overcast Clouds-2°C4 mph, N100%10000m1030hPa78%
21-Apr-2024 06:00Overcast Clouds1°C7 mph, NE91%10000m1032hPa67%
21-Apr-2024 09:00Broken Clouds3°C11 mph, NE74%10000m1034hPa55%
21-Apr-2024 12:00Overcast Clouds4°C11 mph, NE85%10000m1036hPa48%
21-Apr-2024 15:00Scattered Clouds2°C11 mph, NE45%10000m1037hPa52%
21-Apr-2024 18:00Scattered Clouds-1°C7 mph, NE29%10000m1038hPa72%
21-Apr-2024 21:00Clear Sky-4°C4 mph, N6%10000m1039hPa83%
22-Apr-2024 00:00Clear Sky-3°C7 mph, N6%10000m1038hPa83%
22-Apr-2024 03:00Clear Sky-4°C7 mph, N7%10000m1037hPa84%
22-Apr-2024 06:00Few Clouds-1°C7 mph, NE21%10000m1037hPa66%
22-Apr-2024 09:00Broken Clouds4°C7 mph, NE57%10000m1035hPa47%
22-Apr-2024 12:00Scattered Clouds6°C9 mph, NE35%10000m1032hPa42%
22-Apr-2024 15:00Scattered Clouds4°C9 mph, NE43%10000m1031hPa48%
22-Apr-2024 18:00Broken Clouds-0°C4 mph, NE66%10000m1030hPa73%
22-Apr-2024 21:00Broken Clouds-3°C4 mph, N57%10000m1028hPa89%